createdAt,value
2019-02-28T00:01:50.001Z,7.27
2019-02-28T00:04:20.553Z,6.60
2019-02-28T00:06:51.266Z,6.97
2019-02-28T00:09:21.347Z,6.80
2019-02-28T00:11:52.029Z,8.77
2019-02-28T00:14:22.105Z,6.60
2019-02-28T00:16:52.152Z,7.80
2019-02-28T00:19:24.600Z,7.40
2019-02-28T00:21:55.191Z,8.57
2019-02-28T00:24:27.131Z,6.83
2019-02-28T00:26:57.737Z,6.50
2019-02-28T00:29:28.089Z,7.03
2019-02-28T00:31:58.253Z,7.83
2019-02-28T00:34:28.342Z,7.97
2019-02-28T00:36:58.873Z,7.10
2019-02-28T00:39:31.403Z,9.33
2019-02-28T00:42:01.748Z,6.90
2019-02-28T00:44:31.820Z,7.20
2019-02-28T00:47:01.965Z,7.37
2019-02-28T00:49:32.335Z,7.70
2019-02-28T00:52:02.712Z,7.37
2019-02-28T00:54:33.236Z,8.93
2019-02-28T00:57:03.272Z,7.30
2019-02-28T00:59:33.487Z,8.27
2019-02-28T01:02:03.857Z,8.50
2019-02-28T01:04:33.924Z,7.63
2019-02-28T01:07:04.089Z,7.50
2019-02-28T01:09:34.420Z,7.80
2019-02-28T01:12:05.256Z,7.27
2019-02-28T01:14:35.818Z,7.93
2019-02-28T01:17:06.744Z,7.30
2019-02-28T01:19:36.819Z,8.40
2019-02-28T01:22:06.855Z,8.37
2019-02-28T01:24:37.144Z,7.60
2019-02-28T01:27:07.412Z,6.80
2019-02-28T01:29:38.143Z,7.97
2019-02-28T01:32:08.265Z,9.27
2019-02-28T01:34:38.624Z,9.00
2019-02-28T01:37:09.221Z,8.37
2019-02-28T01:39:39.304Z,7.60
2019-02-28T01:42:09.404Z,9.60
2019-02-28T01:44:39.680Z,8.27
2019-02-28T01:47:09.951Z,8.40
2019-02-28T01:49:40.636Z,9.43
2019-02-28T01:52:10.822Z,8.10
2019-02-28T01:54:41.697Z,8.47
2019-02-28T01:57:12.293Z,8.20
2019-02-28T01:59:43.616Z,7.97
2019-02-28T02:02:13.876Z,8.13
2019-02-28T02:04:45.761Z,7.20
2019-02-28T02:07:16.045Z,7.10
2019-02-28T02:09:46.988Z,8.50
2019-02-28T02:12:18.388Z,8.47
2019-02-28T02:14:49.104Z,7.30
2019-02-28T02:17:19.151Z,6.73
2019-02-28T02:19:52.125Z,7.80
2019-02-28T02:22:21.502Z,7.40
2019-02-28T02:24:51.576Z,7.40
2019-02-28T02:27:21.609Z,6.60
2019-02-28T02:29:51.755Z,7.00
2019-02-28T02:32:22.242Z,7.10
2019-02-28T02:34:52.537Z,6.17
2019-02-28T02:37:26.332Z,6.30
2019-02-28T02:39:54.906Z,7.60
2019-02-28T02:42:24.999Z,7.53
2019-02-28T02:44:55.785Z,6.90
2019-02-28T02:47:31.347Z,7.40
2019-02-28T02:49:58.251Z,6.60
2019-02-28T02:52:30.375Z,6.83
2019-02-28T02:55:01.159Z,8.93
2019-02-28T02:57:31.186Z,7.30
2019-02-28T03:00:01.602Z,8.37
2019-02-28T03:02:33.275Z,6.77
2019-02-28T03:05:04.374Z,6.87
2019-02-28T03:07:34.962Z,8.40
2019-02-28T03:10:05.465Z,6.40
2019-02-28T03:12:36.190Z,7.53
2019-02-28T03:15:06.681Z,6.93
2019-02-28T03:17:37.358Z,6.90
2019-02-28T03:20:08.886Z,8.08
2019-02-28T03:22:39.325Z,7.17
2019-02-28T03:25:10.495Z,7.03
2019-02-28T03:27:40.532Z,6.83
2019-02-28T03:30:26.039Z,7.77
2019-02-28T03:32:45.576Z,7.90
2019-02-28T03:35:16.303Z,7.73
2019-02-28T03:37:46.555Z,7.87
2019-02-28T03:40:17.693Z,7.93
2019-02-28T03:42:48.091Z,8.40
2019-02-28T03:45:18.730Z,9.23
2019-02-28T03:47:48.809Z,7.77
2019-02-28T03:50:21.897Z,8.03
2019-02-28T03:52:50.692Z,9.23
2019-02-28T03:55:21.017Z,8.80
2019-02-28T03:57:51.662Z,7.60
2019-02-28T04:00:21.809Z,8.80
2019-02-28T04:02:56.649Z,7.77
2019-02-28T04:05:28.105Z,9.30
2019-02-28T04:07:55.693Z,7.93
2019-02-28T04:10:25.738Z,7.87
2019-02-28T04:12:56.002Z,7.17
2019-02-28T04:15:27.421Z,7.60
2019-02-28T04:17:57.691Z,9.27
2019-02-28T04:20:27.889Z,8.20
2019-02-28T04:22:59.843Z,8.33
2019-02-28T04:25:29.977Z,8.53
2019-02-28T04:28:00.943Z,10.30
2019-02-28T04:30:34.300Z,8.83
2019-02-28T04:33:04.317Z,9.17
2019-02-28T04:35:34.397Z,8.17
2019-02-28T04:38:04.424Z,10.47
2019-02-28T04:40:34.780Z,8.43
2019-02-28T04:43:07.286Z,8.63
2019-02-28T04:45:37.015Z,10.30
2019-02-28T04:48:07.399Z,10.10
2019-02-28T04:50:37.783Z,9.40
2019-02-28T04:53:08.103Z,10.03
2019-02-28T04:55:38.183Z,11.60
2019-02-28T04:58:08.545Z,11.10
2019-02-28T05:00:38.941Z,10.93
2019-02-28T05:03:09.045Z,9.63
2019-02-28T05:05:39.424Z,8.80
2019-02-28T05:08:09.525Z,11.27
2019-02-28T05:10:40.636Z,10.67
2019-02-28T05:13:14.140Z,10.80
2019-02-28T05:15:43.488Z,10.43
2019-02-28T05:18:14.548Z,10.37
2019-02-28T05:20:45.911Z,9.10
2019-02-28T05:23:16.464Z,11.87
2019-02-28T05:25:49.081Z,11.20
2019-02-28T05:28:18.934Z,12.50
2019-02-28T05:30:50.175Z,10.93
2019-02-28T05:33:22.103Z,12.67
2019-02-28T05:35:52.279Z,10.90
2019-02-28T05:38:22.575Z,12.17
2019-02-28T05:40:55.435Z,10.53
2019-02-28T05:43:25.229Z,11.80
2019-02-28T05:45:55.669Z,11.10
2019-02-28T05:48:25.784Z,11.50
2019-02-28T05:50:56.620Z,11.10
2019-02-28T05:53:26.703Z,13.50
2019-02-28T05:55:59.744Z,12.53
2019-02-28T05:58:28.863Z,12.30
2019-02-28T06:00:59.011Z,12.87
2019-02-28T06:03:30.390Z,13.67
2019-02-28T06:06:00.536Z,13.90
2019-02-28T06:08:31.349Z,13.17
2019-02-28T06:11:01.672Z,15.87
2019-02-28T06:13:31.732Z,14.80
2019-02-28T06:16:01.818Z,15.43
2019-02-28T06:18:33.445Z,14.90
2019-02-28T06:21:03.992Z,15.57
2019-02-28T06:23:34.037Z,15.47
2019-02-28T06:26:04.546Z,14.70
2019-02-28T06:28:34.589Z,16.60
2019-02-28T06:31:05.288Z,14.80
2019-02-28T06:33:35.656Z,16.70
2019-02-28T06:36:05.740Z,17.50
2019-02-28T06:38:35.769Z,16.73
2019-02-28T06:41:07.594Z,16.50
2019-02-28T06:43:38.246Z,17.73
2019-02-28T06:46:09.381Z,18.03
2019-02-28T06:48:40.724Z,18.40
2019-02-28T06:51:10.817Z,18.37
2019-02-28T06:53:42.096Z,18.30
2019-02-28T06:56:12.507Z,18.87
2019-02-28T06:58:42.856Z,20.63
2019-02-28T07:01:12.945Z,20.80
2019-02-28T07:03:43.276Z,19.30
2019-02-28T07:06:13.572Z,19.97
2019-02-28T07:08:43.990Z,20.23
2019-02-28T07:11:14.013Z,20.00
2019-02-28T07:13:44.336Z,21.13
2019-02-28T07:16:14.777Z,22.70
2019-02-28T07:18:44.952Z,22.80
2019-02-28T07:21:15.463Z,23.03
2019-02-28T07:23:45.536Z,21.13
2019-02-28T07:26:18.701Z,22.63
2019-02-28T07:28:47.815Z,22.87
2019-02-28T07:31:18.426Z,25.00
2019-02-28T07:33:48.750Z,22.30
2019-02-28T07:36:18.792Z,23.70
2019-02-28T07:38:48.892Z,22.60
2019-02-28T07:41:20.339Z,24.37
2019-02-28T07:43:50.973Z,24.10
2019-02-28T07:46:22.485Z,24.20
2019-02-28T07:48:52.764Z,23.87
2019-02-28T07:51:26.098Z,25.53
2019-02-28T07:53:55.357Z,22.73
2019-02-28T07:56:25.447Z,25.17
2019-02-28T07:58:55.859Z,27.47
2019-02-28T08:01:27.737Z,27.43
2019-02-28T08:03:57.692Z,23.80
2019-02-28T08:06:27.780Z,25.70
2019-02-28T08:08:57.893Z,26.27
2019-02-28T08:11:29.773Z,27.30
2019-02-28T08:14:00.384Z,27.67
2019-02-28T08:16:33.883Z,27.00
2019-02-28T08:19:02.486Z,29.07
2019-02-28T08:21:32.858Z,26.97
2019-02-28T08:24:05.396Z,24.30
2019-02-28T08:26:34.680Z,24.80
2019-02-28T08:29:07.816Z,28.30
2019-02-28T08:31:37.375Z,28.53
2019-02-28T08:34:07.707Z,27.30
2019-02-28T08:36:37.811Z,27.00
2019-02-28T08:39:16.169Z,26.27
2019-02-28T08:41:46.530Z,29.03
2019-02-28T08:44:22.465Z,27.70
2019-02-28T08:46:48.852Z,27.60
2019-02-28T08:49:19.148Z,28.97
2019-02-28T08:51:49.219Z,27.80
2019-02-28T08:54:19.257Z,29.40
2019-02-28T08:56:50.624Z,26.23
2019-02-28T08:59:22.714Z,28.93
2019-02-28T09:01:52.909Z,27.73
2019-02-28T09:04:22.948Z,26.90
2019-02-28T09:06:53.490Z,27.07
2019-02-28T09:09:23.777Z,29.20
2019-02-28T09:11:57.921Z,27.87
2019-02-28T09:14:25.831Z,27.80
2019-02-28T09:16:58.501Z,27.80
2019-02-28T09:19:28.791Z,26.23
2019-02-28T09:21:58.950Z,27.77
2019-02-28T09:24:29.227Z,26.50
2019-02-28T09:27:01.323Z,28.50
2019-02-28T09:29:31.947Z,28.43
2019-02-28T09:32:01.998Z,26.77
2019-02-28T09:34:32.080Z,28.60
2019-02-28T09:37:02.621Z,24.07
2019-02-28T09:39:33.137Z,27.20
2019-02-28T09:42:03.472Z,22.47
2019-02-28T09:44:34.472Z,26.63
2019-02-28T09:47:05.105Z,26.87
2019-02-28T09:49:36.104Z,26.90
2019-02-28T09:52:07.229Z,25.53
2019-02-28T09:54:37.408Z,27.37
2019-02-28T09:57:07.497Z,25.93
2019-02-28T09:59:38.647Z,25.63
2019-02-28T10:02:09.616Z,28.87
2019-02-28T10:04:40.057Z,27.30
2019-02-28T10:07:10.678Z,29.00
2019-02-28T10:09:44.265Z,28.23
2019-02-28T10:12:14.399Z,29.13
2019-02-28T10:14:44.440Z,25.17
2019-02-28T10:17:16.049Z,28.00
2019-02-28T10:19:51.961Z,26.23
2019-02-28T10:22:18.209Z,26.30
2019-02-28T10:24:48.813Z,23.83
2019-02-28T10:27:19.136Z,24.97
2019-02-28T10:29:49.261Z,26.37
2019-02-28T10:32:20.408Z,26.43
2019-02-28T10:34:50.739Z,28.37
2019-02-28T10:37:22.855Z,28.43
2019-02-28T10:39:53.112Z,27.60
2019-02-28T10:42:23.209Z,25.17
2019-02-28T10:44:53.297Z,27.63
2019-02-28T10:47:28.129Z,25.97
2019-02-28T10:49:58.276Z,24.50
2019-02-28T10:52:30.558Z,25.20
2019-02-28T10:54:59.976Z,23.47
2019-02-28T10:57:30.521Z,25.07
2019-02-28T11:00:00.885Z,26.53
2019-02-28T11:02:31.824Z,26.80
2019-02-28T11:05:02.089Z,24.13
2019-02-28T11:07:37.833Z,24.27
2019-02-28T11:10:06.519Z,18.80
2019-02-28T11:12:38.632Z,26.23
2019-02-28T11:15:10.410Z,26.63
2019-02-28T11:17:41.944Z,23.53
2019-02-28T11:20:21.886Z,24.40
2019-02-28T11:22:45.976Z,23.70
2019-02-28T11:25:17.323Z,26.53
2019-02-28T11:27:47.815Z,26.67
2019-02-28T11:30:19.256Z,27.10
2019-02-28T11:32:49.849Z,26.23
2019-02-28T11:35:23.211Z,24.67
2019-02-28T11:37:52.668Z,24.83
2019-02-28T11:40:24.341Z,26.77
2019-02-28T11:42:54.528Z,26.20
2019-02-28T11:45:25.701Z,24.13
2019-02-28T11:47:57.159Z,27.30
2019-02-28T11:50:27.263Z,28.47
2019-02-28T11:53:03.306Z,24.30
2019-02-28T11:55:29.567Z,28.50
2019-02-28T11:58:00.079Z,26.07
2019-02-28T12:00:32.566Z,25.40
2019-02-28T12:03:02.862Z,26.70
2019-02-28T12:05:32.951Z,27.20
2019-02-28T12:08:09.271Z,26.73
2019-02-28T12:10:35.704Z,27.30
2019-02-28T12:13:06.025Z,27.00
2019-02-28T12:15:37.958Z,27.63
2019-02-28T12:18:09.022Z,27.90
2019-02-28T12:20:39.065Z,25.73
2019-02-28T12:23:09.765Z,27.90
2019-02-28T12:25:42.683Z,27.10
2019-02-28T12:28:12.185Z,26.33
2019-02-28T12:30:42.404Z,25.97
2019-02-28T12:33:15.435Z,26.93
2019-02-28T12:35:44.684Z,25.00
2019-02-28T12:38:15.516Z,27.37
2019-02-28T12:40:47.204Z,26.97
2019-02-28T12:43:17.375Z,26.77
2019-02-28T12:45:47.692Z,27.00
2019-02-28T12:48:18.278Z,26.20
2019-02-28T12:50:48.372Z,24.97
2019-02-28T12:53:24.264Z,26.27
2019-02-28T12:55:50.842Z,27.37
2019-02-28T12:58:21.208Z,27.00
2019-02-28T13:00:51.830Z,27.90
2019-02-28T13:03:22.541Z,26.10
2019-02-28T13:05:52.700Z,26.40
2019-02-28T13:08:24.041Z,26.63
2019-02-28T13:10:54.395Z,25.53
2019-02-28T13:13:27.438Z,25.87
2019-02-28T13:15:56.645Z,25.77
2019-02-28T13:18:26.766Z,24.50
2019-02-28T13:20:57.284Z,27.77
2019-02-28T13:23:27.337Z,26.60
2019-02-28T13:26:00.008Z,26.30
2019-02-28T13:28:29.419Z,24.60
2019-02-28T13:30:59.949Z,23.10
2019-02-28T13:33:30.400Z,25.63
2019-02-28T13:36:01.160Z,27.33
2019-02-28T13:38:31.208Z,26.27
2019-02-28T13:41:01.820Z,26.90
2019-02-28T13:43:32.416Z,28.27
2019-02-28T13:46:02.505Z,27.07
2019-02-28T13:48:33.749Z,25.27
2019-02-28T13:51:08.448Z,26.77
2019-02-28T13:53:38.229Z,25.17
2019-02-28T13:56:08.413Z,26.57
2019-02-28T13:58:38.773Z,26.17
2019-02-28T14:01:09.429Z,26.17
2019-02-28T14:03:42.294Z,26.63
2019-02-28T14:06:18.914Z,26.40
2019-02-28T14:08:46.006Z,28.40
2019-02-28T14:11:17.391Z,32.00
2019-02-28T14:13:47.489Z,27.80
2019-02-28T14:16:17.761Z,30.03
2019-02-28T14:18:48.192Z,29.10
2019-02-28T14:21:18.223Z,29.43
2019-02-28T14:23:48.327Z,28.53
2019-02-28T14:26:19.709Z,28.60
2019-02-28T14:28:51.240Z,28.90
2019-02-28T14:31:23.416Z,28.23
2019-02-28T14:33:54.491Z,30.23
2019-02-28T14:36:25.773Z,30.17
2019-02-28T14:38:57.772Z,29.37
2019-02-28T14:41:30.888Z,28.77
2019-02-28T14:43:59.614Z,28.20
2019-02-28T14:46:29.643Z,32.60
2019-02-28T14:48:59.934Z,28.27
2019-02-28T14:51:30.250Z,26.90
2019-02-28T14:54:00.753Z,28.67
2019-02-28T14:56:31.216Z,30.90
2019-02-28T14:59:01.540Z,32.23
2019-02-28T15:01:31.893Z,31.73
2019-02-28T15:04:02.696Z,31.07
2019-02-28T15:06:33.213Z,27.33
2019-02-28T15:09:06.249Z,32.23
2019-02-28T15:11:38.198Z,28.17
2019-02-28T15:14:09.551Z,28.40
2019-02-28T15:16:40.296Z,27.50
2019-02-28T15:19:11.531Z,29.43
2019-02-28T15:21:42.699Z,29.10
2019-02-28T15:24:13.753Z,28.80
2019-02-28T15:26:45.404Z,28.80
2019-02-28T15:29:15.725Z,29.90
2019-02-28T15:31:46.006Z,30.30
2019-02-28T15:34:16.088Z,30.90
2019-02-28T15:36:46.221Z,29.27
2019-02-28T15:39:17.370Z,29.60
2019-02-28T15:41:48.680Z,28.40
2019-02-28T15:44:18.891Z,28.03
2019-02-28T15:46:48.912Z,29.03
2019-02-28T15:49:19.492Z,27.70
2019-02-28T15:51:49.765Z,27.40
2019-02-28T15:54:21.654Z,28.37
2019-02-28T15:56:51.861Z,26.70
2019-02-28T15:59:23.705Z,25.10
2019-02-28T16:01:53.963Z,28.40
2019-02-28T16:04:26.144Z,23.83
2019-02-28T16:06:58.115Z,27.07
2019-02-28T16:09:28.412Z,25.97
2019-02-28T16:11:58.829Z,27.17
2019-02-28T16:14:31.452Z,27.93
2019-02-28T16:17:03.372Z,27.10
2019-02-28T16:19:32.780Z,27.60
2019-02-28T16:22:03.807Z,28.20
2019-02-28T16:24:36.777Z,28.70
2019-02-28T16:27:06.852Z,28.80
2019-02-28T16:29:36.957Z,28.73
2019-02-28T16:32:07.780Z,26.97
2019-02-28T16:34:38.847Z,28.27
2019-02-28T16:37:09.793Z,28.90
2019-02-28T16:39:39.880Z,28.27
2019-02-28T16:42:11.554Z,30.13
2019-02-28T16:44:42.181Z,26.10
2019-02-28T16:47:12.284Z,28.93
2019-02-28T16:49:44.461Z,30.30
2019-02-28T16:52:14.858Z,28.90
2019-02-28T16:54:45.125Z,29.60
2019-02-28T16:57:15.233Z,27.80
2019-02-28T16:59:45.632Z,28.33
2019-02-28T17:02:15.926Z,29.13
2019-02-28T17:04:48.647Z,29.70
2019-02-28T17:07:19.346Z,27.30
2019-02-28T17:09:50.789Z,27.87
2019-02-28T17:12:35.096Z,31.80
2019-02-28T17:15:11.197Z,29.33
2019-02-28T17:17:55.808Z,29.00
2019-02-28T17:20:26.113Z,28.20
2019-02-28T17:22:58.643Z,30.97
2019-02-28T17:25:29.171Z,28.43
2019-02-28T17:28:18.384Z,30.73
2019-02-28T17:31:22.533Z,31.20
2019-02-28T17:33:53.602Z,30.10
2019-02-28T17:36:23.732Z,29.77
2019-02-28T17:38:54.442Z,30.73
2019-02-28T17:41:24.495Z,29.37
2019-02-28T17:44:18.601Z,29.90
2019-02-28T17:46:53.229Z,30.10
2019-02-28T17:49:56.388Z,32.50
2019-02-28T17:52:33.690Z,31.97
2019-02-28T17:55:37.869Z,30.10
2019-02-28T17:58:28.291Z,27.40
2019-02-28T18:01:28.919Z,28.07
2019-02-28T18:04:16.913Z,31.73
2019-02-28T18:06:56.564Z,32.20
2019-02-28T18:10:14.668Z,30.73
2019-02-28T18:13:07.558Z,28.93
2019-02-28T18:15:47.033Z,28.30
2019-02-28T18:18:41.743Z,28.07
2019-02-28T18:21:51.029Z,29.47
2019-02-28T18:25:18.090Z,31.23
2019-02-28T18:28:22.580Z,28.37
2019-02-28T18:31:12.224Z,28.03
2019-02-28T18:34:02.752Z,27.90
2019-02-28T18:36:32.864Z,27.37
2019-02-28T18:39:08.022Z,28.70
2019-02-28T18:41:38.985Z,27.43
2019-02-28T18:44:10.017Z,27.17
2019-02-28T18:46:40.445Z,29.23
2019-02-28T18:49:10.518Z,28.83
2019-02-28T18:51:41.281Z,28.53
2019-02-28T18:54:11.304Z,28.23
2019-02-28T18:56:41.619Z,27.40
2019-02-28T18:59:11.905Z,27.20
2019-02-28T19:01:42.000Z,29.83
2019-02-28T19:04:12.820Z,29.47
2019-02-28T19:06:43.259Z,25.47
2019-02-28T19:09:22.659Z,27.17
2019-02-28T19:11:52.885Z,26.20
2019-02-28T19:14:22.916Z,31.27
2019-02-28T19:16:52.988Z,26.00
2019-02-28T19:19:23.069Z,28.37
2019-02-28T19:21:53.520Z,27.70
2019-02-28T19:24:23.628Z,30.83
2019-02-28T19:26:54.682Z,30.60
2019-02-28T19:29:24.728Z,28.07
2019-02-28T19:31:55.052Z,29.70
2019-02-28T19:34:25.088Z,25.70
2019-02-28T19:36:55.189Z,29.00
2019-02-28T19:39:25.481Z,27.60
2019-02-28T19:41:56.147Z,26.13
2019-02-28T19:44:27.454Z,27.37
2019-02-28T19:46:57.689Z,28.10
2019-02-28T19:49:28.248Z,25.30
2019-02-28T19:51:58.361Z,27.50
2019-02-28T19:54:28.523Z,27.03
2019-02-28T19:56:58.608Z,26.17
2019-02-28T19:59:28.864Z,25.83
2019-02-28T20:01:59.171Z,29.20
2019-02-28T20:04:29.424Z,28.33
2019-02-28T20:06:59.768Z,27.00
2019-02-28T20:09:30.284Z,28.13
2019-02-28T20:12:00.309Z,27.70
2019-02-28T20:14:30.757Z,28.47
2019-02-28T20:17:01.217Z,27.87
2019-02-28T20:19:31.593Z,28.97
2019-02-28T20:22:01.624Z,28.07
2019-02-28T20:24:31.821Z,27.30
2019-02-28T20:27:02.304Z,25.67
2019-02-28T20:29:33.001Z,27.90
2019-02-28T20:32:03.533Z,25.77
2019-02-28T20:34:33.572Z,29.30
2019-02-28T20:37:03.965Z,27.43
2019-02-28T20:39:34.422Z,25.87
2019-02-28T20:42:04.656Z,27.80
2019-02-28T20:44:35.776Z,24.70
2019-02-28T20:47:05.925Z,24.73
2019-02-28T20:49:36.297Z,26.43
2019-02-28T20:52:06.376Z,26.77
2019-02-28T20:54:36.400Z,27.37
2019-02-28T20:57:07.867Z,29.70
2019-02-28T20:59:37.924Z,31.70
2019-02-28T21:02:08.089Z,26.17
2019-02-28T21:04:38.112Z,29.27
2019-02-28T21:07:08.517Z,29.93
2019-02-28T21:09:44.923Z,26.60
2019-02-28T21:12:11.317Z,27.10
2019-02-28T21:14:41.423Z,28.50
2019-02-28T21:17:11.893Z,30.20
2019-02-28T21:19:42.255Z,26.90
2019-02-28T21:22:12.576Z,27.87
2019-02-28T21:24:42.666Z,30.30
2019-02-28T21:27:13.656Z,28.40
2019-02-28T21:29:43.921Z,29.30
2019-02-28T21:32:14.510Z,27.27
2019-02-28T21:34:45.112Z,28.70
2019-02-28T21:37:15.270Z,27.47
2019-02-28T21:39:45.353Z,30.60
2019-02-28T21:42:17.060Z,27.43
2019-02-28T21:44:47.455Z,25.90
2019-02-28T21:47:17.840Z,27.90
2019-02-28T21:49:48.405Z,31.07
2019-02-28T21:52:18.766Z,30.50
2019-02-28T21:54:49.397Z,34.50
2019-02-28T21:57:19.726Z,31.20
2019-02-28T21:59:49.988Z,31.07
2019-02-28T22:02:20.108Z,30.17
2019-02-28T22:04:50.235Z,29.37
2019-02-28T22:07:20.602Z,27.77
2019-02-28T22:09:50.704Z,25.33
2019-02-28T22:12:21.191Z,29.40
2019-02-28T22:14:51.883Z,29.50
2019-02-28T22:17:22.188Z,29.07
2019-02-28T22:19:52.469Z,28.00
2019-02-28T22:22:22.800Z,28.20
2019-02-28T22:24:55.216Z,26.43
2019-02-28T22:27:30.357Z,29.63
2019-02-28T22:30:04.944Z,26.67
2019-02-28T22:32:42.968Z,28.10
2019-02-28T22:35:44.865Z,30.83
2019-02-28T22:38:17.011Z,29.77
2019-02-28T22:40:47.664Z,28.97
2019-02-28T22:43:17.707Z,29.13
2019-02-28T22:45:48.184Z,28.50
2019-02-28T22:48:18.343Z,28.93
2019-02-28T22:50:49.096Z,30.73
2019-02-28T22:53:19.200Z,32.20
2019-02-28T22:55:49.235Z,27.37
2019-02-28T22:58:19.808Z,31.50
2019-02-28T23:01:04.855Z,30.40
2019-02-28T23:03:36.944Z,26.97
2019-02-28T23:06:07.500Z,28.40
2019-02-28T23:08:37.576Z,27.83
2019-02-28T23:11:07.978Z,29.03
2019-02-28T23:13:38.080Z,26.97
2019-02-28T23:16:08.520Z,25.23
2019-02-28T23:18:38.770Z,25.30
2019-02-28T23:21:08.808Z,24.83
2019-02-28T23:23:38.960Z,27.10
2019-02-28T23:26:14.733Z,27.30
2019-02-28T23:28:58.526Z,27.80
2019-02-28T23:32:23.673Z,25.23
2019-02-28T23:34:54.929Z,28.07
2019-02-28T23:37:25.192Z,26.73
2019-02-28T23:39:55.493Z,26.30
2019-02-28T23:42:25.969Z,26.30
2019-02-28T23:44:57.928Z,24.87
2019-02-28T23:47:28.344Z,26.63
2019-02-28T23:49:58.364Z,25.07
2019-02-28T23:52:28.686Z,28.23
2019-02-28T23:54:59.184Z,25.20
2019-02-28T23:57:29.221Z,25.70
2019-02-28T23:59:59.289Z,26.37
